Terminal Aerodrome Forecast
Issued by NWS Sterling, VA

Home | Current Version | Previous Version | Text Only | Print | Product List | Glossary On
Versions: 1 2 3 4 5 6 7 8 9 10 11 12 13 14 15 16 17 18 19 20
000
FTUS41 KLWX 051345 AAA
TAFCHO
TAF AMD
KCHO 051345Z 0514/0612 04005KT 5SM BR BKN012 BKN018
     FM051500 05008KT 6SM BR BKN015
     FM051700 05007KT P6SM BKN025
     FM051900 05007KT P6SM BKN040=

USA.gov is the U.S. government's official web portal to all federal, state and local government web resources and services.